メインページ
METAR-TAF:

METAR-TAF

空港 :

ハリファックス, ノバスコシア州, カナダ

ハリファックス・ロバート・L・スタンフィールド国際空港

緯度: 44-53N, 経度: 063-30W, 海抜: 145m

現時点の気象観測

当レポートは1時間33分前の21:00(UTC)に作成
の風 9kt、南東から南/南西の間で変化する
気温 22°C
湿度 57%
気圧 1020 hPa
視程: 24.1km
高度4500ftの雲はほとんどない

METAR: CYHZ 262100Z 18009KT 140V200 15SM FEW045 22/13 A3012 RMK CU1 SLP203 DENSITY ALT 1200FT

時間: 19:33 (22:33 UTC)

予報

当レポートは1時間55分前の20:38(UTC)に作成
予報は26日の 21時(UTC)から 27日の 18時(UTC)まで有効
の風 12kt
視程: 10km
高度4000ftの雲はほとんどない
27日の 0000時(UTC)から
南/南西の風 8kt
視程: 10km
晴天
確率 30%
27日の 07時(UTC)から 27日の 11時(UTC)まで
視程: 0.8km
27日の 1500時(UTC)から
南/南西の風 10kt
視程: 10km
高度14000ftの千切れ雲あり

TAF: CYHZ 262038Z 2621/2718 19012KT P6SM FEW040 FM270000 20008KT P6SM SKC PROB30 2707/2711 1/2SM FG FM271500 20010KT P6SM BKN140 RMK NXT FCST BY 270000Z

4,000以上の空港の気象観測と天気予報(METAR報とTAF報)

利用可能な観測所は地図上に黄色い丸と赤い丸で示す。

丸の上にカーソルを重ねると観測所名を参照できる。

次にクリックすると気象観測と天気予報を参照できる。

マップの切り替え:黒色「×」印の緑ボタンをクリックして拡大、「-」印の緑ボタンをクリックして縮小、緑色の三角印をクリックして隣りの地図に切り替え


METAR-TAF: